createdAt,value
2022-10-23T09:22:01.210Z,52
2022-10-23T09:23:18.194Z,52
2022-10-23T09:24:35.155Z,51.1
2022-10-23T09:25:52.325Z,49.7
2022-10-23T09:27:09.244Z,48.8
2022-10-23T09:28:26.337Z,47.6
2022-10-23T09:29:43.176Z,47.3
2022-10-23T09:31:00.218Z,46.4
2022-10-23T09:32:17.247Z,45.6
2022-10-23T09:33:34.176Z,45.5
2022-10-23T09:34:51.186Z,44.5
2022-10-23T09:36:08.205Z,44.2
2022-10-23T09:37:25.239Z,44.7
2022-10-23T09:38:42.217Z,44.6
2022-10-23T09:39:59.190Z,44.7
2022-10-23T09:41:16.183Z,45
2022-10-23T09:42:33.254Z,45.9
2022-10-23T09:43:50.192Z,46.4
2022-10-23T09:45:07.265Z,46.5
2022-10-23T09:46:25.681Z,45.7
2022-10-23T09:47:42.606Z,44.7
2022-10-23T09:48:59.919Z,43.7
2022-10-23T09:50:16.213Z,42.2
2022-10-23T09:51:33.258Z,41.1
2022-10-23T09:52:50.248Z,40.8
2022-10-23T09:54:07.271Z,41.2
2022-10-23T09:55:24.278Z,40.8
2022-10-23T09:56:41.288Z,41.2
2022-10-23T09:57:58.340Z,42.3
2022-10-23T09:59:15.272Z,43.5
2022-10-23T10:00:32.265Z,43.5
2022-10-23T10:01:49.427Z,43.8
2022-10-23T10:03:06.240Z,43.4
2022-10-23T10:04:23.284Z,43.3
2022-10-23T10:05:40.228Z,43.1
2022-10-23T10:06:57.227Z,43.8
2022-10-23T10:08:14.255Z,44.8
2022-10-23T10:09:31.253Z,45.7
2022-10-23T10:10:48.297Z,46.2
2022-10-23T10:12:05.272Z,45.9
2022-10-23T10:13:22.249Z,45.2
2022-10-23T10:14:39.270Z,44.5
2022-10-23T10:15:56.253Z,44.5
2022-10-23T10:17:13.256Z,45.5
2022-10-23T10:18:30.413Z,45.5
2022-10-23T10:19:47.331Z,45.6
2022-10-23T10:21:04.268Z,45.3
2022-10-23T10:22:21.258Z,44.8
2022-10-23T10:23:38.285Z,44.6
2022-10-23T10:24:55.297Z,44
2022-10-23T10:26:12.270Z,44.2
2022-10-23T10:27:29.307Z,44.6
2022-10-23T10:28:46.260Z,45
2022-10-23T10:30:03.903Z,44.4
2022-10-23T10:31:20.272Z,44.5
2022-10-23T10:32:37.323Z,45
2022-10-23T10:33:54.300Z,45.5
2022-10-23T10:35:11.228Z,45.1
2022-10-23T10:36:28.287Z,44.2
2022-10-23T10:37:46.138Z,43.6
2022-10-23T10:39:02.539Z,43.9
2022-10-23T10:40:19.327Z,44
2022-10-23T10:41:36.292Z,45.1
2022-10-23T10:42:53.346Z,47
2022-10-23T10:44:10.304Z,48
2022-10-23T10:45:27.323Z,49.1
2022-10-23T10:46:44.426Z,49.4
2022-10-23T10:48:01.723Z,49.8
2022-10-23T10:49:18.344Z,49.5
2022-10-23T10:50:35.320Z,48.5
2022-10-23T10:51:52.374Z,47.6
2022-10-23T10:53:09.325Z,46.8
2022-10-23T10:54:27.424Z,46.6
2022-10-23T10:55:44.329Z,46.3
2022-10-23T10:57:01.334Z,46.6
2022-10-23T10:58:18.303Z,47.3
2022-10-23T10:59:35.661Z,46.9
2022-10-23T11:00:52.436Z,46.7
2022-10-23T11:02:09.491Z,46.7
2022-10-23T11:03:26.657Z,46.6
2022-10-23T11:04:43.399Z,45.8
2022-10-23T11:06:00.703Z,45
2022-10-23T11:07:17.390Z,44.1
2022-10-23T11:08:40.117Z,43.6
2022-10-23T11:09:51.577Z,43.7
2022-10-23T11:11:08.367Z,43.5
2022-10-23T11:12:25.531Z,44
2022-10-23T11:13:42.382Z,44.3
2022-10-23T11:14:59.342Z,45.2
2022-10-23T11:16:16.344Z,46.3
2022-10-23T11:17:33.415Z,47.6
2022-10-23T11:18:50.391Z,48.5
2022-10-23T11:20:07.381Z,49.3
2022-10-23T11:21:24.361Z,49.6
2022-10-23T11:22:41.701Z,49.6
2022-10-23T11:23:58.374Z,49.3
2022-10-23T11:25:15.432Z,49
2022-10-23T11:26:32.390Z,48.3
2022-10-23T11:27:49.375Z,48
2022-10-23T11:29:06.413Z,47.4
2022-10-23T11:30:23.381Z,47.2
2022-10-23T11:31:40.383Z,46.4
2022-10-23T11:32:57.403Z,46.1
2022-10-23T11:34:14.403Z,46.1
2022-10-23T11:35:31.675Z,46.7
2022-10-23T11:36:48.381Z,46.9
2022-10-23T11:38:05.400Z,47.3
2022-10-23T11:39:22.448Z,47.2
2022-10-23T11:40:39.473Z,47
2022-10-23T11:41:56.618Z,46.5
2022-10-23T11:43:13.461Z,46.2
2022-10-23T11:44:30.424Z,46.1
2022-10-23T11:45:47.413Z,45.5
2022-10-23T11:47:04.547Z,45.8
2022-10-23T11:48:21.539Z,46.7
2022-10-23T11:49:38.822Z,47.3
2022-10-23T11:50:55.419Z,48
2022-10-23T11:52:12.420Z,48.5
2022-10-23T11:53:29.540Z,48.9
2022-10-23T11:54:46.461Z,48.8
2022-10-23T11:56:03.516Z,48.7
2022-10-23T11:57:20.473Z,48.2
2022-10-23T11:58:37.478Z,47.9
2022-10-23T11:59:54.493Z,47
2022-10-23T12:01:11.601Z,46.1
2022-10-23T12:02:28.504Z,45.8
2022-10-23T12:03:45.459Z,45.5
2022-10-23T12:05:02.834Z,45.5
2022-10-23T12:06:19.460Z,46.1
2022-10-23T12:07:36.493Z,46.4
2022-10-23T12:08:53.469Z,46.4
2022-10-23T12:10:10.490Z,46.1
2022-10-23T12:11:27.690Z,46.2
2022-10-23T12:12:44.543Z,46.8
2022-10-23T12:14:01.465Z,47.1
2022-10-23T12:15:18.495Z,47.8
2022-10-23T12:16:35.464Z,48.7
2022-10-23T12:17:52.497Z,49.1
2022-10-23T12:19:09.633Z,48.6
2022-10-23T12:20:27.527Z,48.6
2022-10-23T12:21:44.515Z,49
2022-10-23T12:23:01.579Z,49.1
2022-10-23T12:24:18.478Z,49.9
2022-10-23T12:25:35.669Z,50.2
2022-10-23T12:26:52.568Z,50.1
2022-10-23T12:28:09.524Z,51
2022-10-23T12:29:26.536Z,51.2
2022-10-23T12:30:43.670Z,50.9
2022-10-23T12:32:00.505Z,50.6
2022-10-23T12:33:17.514Z,51.1
2022-10-23T12:34:34.526Z,51.6
2022-10-23T12:35:51.680Z,51.2
2022-10-23T12:37:08.523Z,51.1
2022-10-23T12:38:25.512Z,51.4
2022-10-23T12:39:42.504Z,51.7
2022-10-23T12:40:59.491Z,51.3
2022-10-23T12:42:17.487Z,51.2
2022-10-23T12:43:34.523Z,50.5
2022-10-23T12:44:51.515Z,50.1
2022-10-23T12:46:08.610Z,50
2022-10-23T12:47:25.560Z,49.8
2022-10-23T12:48:42.522Z,49.6
2022-10-23T12:49:59.515Z,49.4
2022-10-23T12:51:16.557Z,48.7
2022-10-23T12:52:33.517Z,48.4
2022-10-23T12:53:50.513Z,48.2
2022-10-23T12:55:07.511Z,48
2022-10-23T12:56:24.589Z,47.4
2022-10-23T12:57:41.911Z,47.2
2022-10-23T12:58:58.552Z,46.6
2022-10-23T13:00:15.561Z,46.4
2022-10-23T13:01:32.748Z,45.8
2022-10-23T13:02:49.546Z,45.9
2022-10-23T13:04:06.640Z,46
2022-10-23T13:05:23.670Z,45.8
2022-10-23T13:06:41.687Z,45.3
2022-10-23T13:07:58.558Z,45
2022-10-23T13:09:15.554Z,45.1
2022-10-23T13:10:32.568Z,45.2
2022-10-23T13:11:49.564Z,45
2022-10-23T13:13:06.594Z,45.2
2022-10-23T13:14:23.577Z,45.6
2022-10-23T13:15:40.582Z,46
2022-10-23T13:16:57.612Z,46.5
2022-10-23T13:18:14.573Z,47.2
2022-10-23T13:19:31.560Z,48.2
2022-10-23T13:20:48.594Z,48.8
2022-10-23T13:22:05.603Z,48.8
2022-10-23T13:23:22.581Z,49
2022-10-23T13:24:39.610Z,48.7
2022-10-23T13:25:56.630Z,48.2
2022-10-23T13:27:13.790Z,47.8
2022-10-23T13:28:30.686Z,47.4
2022-10-23T13:29:47.599Z,47.2
2022-10-23T13:31:04.587Z,46.9
2022-10-23T13:32:21.572Z,46.5
2022-10-23T13:33:38.639Z,46.7
2022-10-23T13:34:58.245Z,46.7
2022-10-23T13:36:12.619Z,46.4
2022-10-23T13:37:29.593Z,46.2
2022-10-23T13:38:46.824Z,46
2022-10-23T13:40:03.878Z,46.2
2022-10-23T13:41:20.596Z,46.9
2022-10-23T13:42:37.804Z,48.1
2022-10-23T13:43:54.638Z,48.9
2022-10-23T13:45:11.611Z,49.7
2022-10-23T13:46:28.669Z,50.3
2022-10-23T13:47:46.672Z,51.2
2022-10-23T13:49:04.288Z,51.6
2022-10-23T13:50:21.905Z,51.9
2022-10-23T13:51:40.189Z,51.6
2022-10-23T13:52:56.009Z,51.7
2022-10-23T13:54:13.956Z,51.8
2022-10-23T13:55:30.691Z,51.8
2022-10-23T13:56:48.341Z,51.9
2022-10-23T13:58:06.036Z,51.7
2022-10-23T13:59:23.371Z,51.6
2022-10-23T14:00:40.684Z,51.7
2022-10-23T14:01:58.534Z,51.8
2022-10-23T14:03:15.796Z,52.3
2022-10-23T14:04:33.187Z,52.7
2022-10-23T14:05:51.027Z,53.6
2022-10-23T14:07:08.329Z,54.5
2022-10-23T14:08:26.117Z,54.6
2022-10-23T14:09:43.324Z,55.2
2022-10-23T14:11:00.939Z,55.4
2022-10-23T14:12:18.210Z,55.4
2022-10-23T14:13:36.768Z,55.4
2022-10-23T14:14:55.182Z,55.2
2022-10-23T14:16:13.540Z,55.2
2022-10-23T14:17:33.255Z,55.3
2022-10-23T14:18:51.485Z,55.6
2022-10-23T14:20:08.143Z,55.5
2022-10-23T14:21:24.856Z,55.9
2022-10-23T14:22:42.008Z,56.2
2022-10-23T14:23:59.355Z,56.7
2022-10-23T14:25:16.939Z,57
2022-10-23T14:26:35.269Z,56.9
2022-10-23T14:27:51.925Z,56.6
2022-10-23T14:29:10.261Z,56.4
2022-10-23T14:30:26.070Z,56.4
2022-10-23T14:31:43.231Z,56.2
2022-10-23T14:33:01.323Z,56.2
2022-10-23T14:34:19.759Z,56.2
2022-10-23T14:35:37.486Z,56.3
2022-10-23T14:37:07.860Z,56.1
2022-10-23T14:38:11.722Z,56
2022-10-23T14:39:29.205Z,56
2022-10-23T14:40:45.866Z,56
2022-10-23T14:42:02.923Z,56.3
2022-10-23T14:43:19.719Z,56.5
2022-10-23T14:45:54.076Z,56.3
2022-10-23T14:47:10.864Z,56.6
2022-10-23T14:48:28.262Z,56.9
2022-10-23T14:49:47.002Z,57.1
2022-10-23T14:51:04.120Z,57.6
2022-10-23T14:52:21.762Z,58.1
2022-10-23T14:53:39.488Z,58.1
2022-10-23T14:54:57.706Z,58.1
2022-10-23T14:56:14.884Z,58
2022-10-23T14:57:32.153Z,57.9
2022-10-23T14:58:48.933Z,57.9
2022-10-23T15:00:06.077Z,58.2
2022-10-23T15:01:22.955Z,59.1
2022-10-23T15:02:39.808Z,60
2022-10-23T15:03:56.829Z,60.9
2022-10-23T15:05:13.827Z,61.5
2022-10-23T15:06:31.330Z,62
2022-10-23T15:07:48.057Z,62.6
2022-10-23T15:09:06.669Z,63.1
2022-10-23T15:10:24.061Z,63.5
2022-10-23T15:11:41.234Z,63.9
2022-10-23T15:12:58.334Z,64.2
2022-10-23T15:14:16.916Z,64.2
2022-10-23T15:15:34.556Z,64.1
2022-10-23T15:16:52.748Z,64.1
2022-10-23T15:18:10.134Z,64
2022-10-23T15:19:27.287Z,64
2022-10-23T15:20:43.789Z,63.8
2022-10-23T15:22:00.933Z,63.8
2022-10-23T15:23:18.931Z,63.7
2022-10-23T15:24:36.022Z,63.7
2022-10-23T15:25:53.240Z,63.6
2022-10-23T15:28:30.006Z,63.4
2022-10-23T15:29:46.840Z,63.1
2022-10-23T15:31:05.054Z,62.9
2022-10-23T15:32:22.539Z,62.9
2022-10-23T15:33:40.392Z,62.9
2022-10-23T15:34:57.131Z,63
2022-10-23T15:36:15.601Z,63.1
2022-10-23T15:37:31.867Z,63.5
2022-10-23T15:38:50.033Z,63.9
2022-10-23T15:40:07.689Z,64.3
2022-10-23T15:41:25.075Z,64.7
2022-10-23T15:42:42.202Z,64.7
2022-10-23T15:43:59.418Z,64.6
2022-10-23T15:45:17.340Z,64.5
2022-10-23T15:46:34.296Z,64.7
2022-10-23T15:47:51.006Z,64.8
2022-10-23T15:49:08.487Z,65
2022-10-23T15:50:25.861Z,65.2
2022-10-23T15:51:44.423Z,65.3
2022-10-23T15:53:01.346Z,65.3
2022-10-23T15:54:19.949Z,65.2
2022-10-23T15:55:38.379Z,64.9
2022-10-23T15:56:55.515Z,64.7
2022-10-23T15:58:13.409Z,64.4
2022-10-23T15:59:30.841Z,64.2
2022-10-23T16:00:48.576Z,64.1
2022-10-23T16:02:07.573Z,64.2
2022-10-23T16:03:24.297Z,64.3
2022-10-23T16:04:41.660Z,64.4
2022-10-23T16:05:59.284Z,64.6
2022-10-23T16:07:15.994Z,64.8
2022-10-23T16:08:33.353Z,64.7
2022-10-23T16:09:50.906Z,64.8
2022-10-23T16:11:07.990Z,64.9
2022-10-23T16:12:25.001Z,64.9
2022-10-23T16:13:42.017Z,64.8
2022-10-23T16:14:58.882Z,65.1
2022-10-23T16:16:15.881Z,65.6
2022-10-23T16:17:33.592Z,66.3
2022-10-23T16:18:50.925Z,66.9
2022-10-23T16:20:08.059Z,67.4
2022-10-23T16:21:24.935Z,67.9
2022-10-23T16:22:44.078Z,68.3
2022-10-23T16:24:00.422Z,68.6
2022-10-23T16:25:17.134Z,68.9
2022-10-23T16:26:33.952Z,69.1
2022-10-23T16:27:51.009Z,69.3
2022-10-23T16:29:07.949Z,69.3
2022-10-23T16:30:24.985Z,69.1
2022-10-23T16:31:41.919Z,68.9
2022-10-23T16:32:59.586Z,68.8
2022-10-23T16:34:16.265Z,68.4
2022-10-23T16:35:33.105Z,68.2
2022-10-23T16:36:52.581Z,67.8
2022-10-23T16:38:10.139Z,67.5
2022-10-23T16:39:26.957Z,67.2
2022-10-23T16:40:44.006Z,67
2022-10-23T16:42:01.322Z,66.9
2022-10-23T16:43:18.890Z,66.9
2022-10-23T16:44:35.978Z,66.8
2022-10-23T16:45:53.083Z,66.9
2022-10-23T16:47:10.046Z,67.1
2022-10-23T16:48:26.919Z,67.2
2022-10-23T16:49:43.929Z,67.4
2022-10-23T16:51:01.107Z,67.5
2022-10-23T16:52:19.275Z,67.4
2022-10-23T16:53:35.998Z,67.1
2022-10-23T16:54:53.302Z,67.1
2022-10-23T16:56:09.978Z,67.1
2022-10-23T16:57:26.950Z,67.4
2022-10-23T16:58:44.509Z,67.7
2022-10-23T17:00:01.937Z,68.2
2022-10-23T17:01:19.531Z,68.6
2022-10-23T17:02:36.068Z,68.9
2022-10-23T17:03:55.062Z,69
2022-10-23T17:05:12.049Z,69.3
2022-10-23T17:06:29.025Z,69.7
2022-10-23T17:07:46.404Z,69.9
2022-10-23T17:09:04.617Z,70.2
2022-10-23T17:10:22.063Z,70.5
2022-10-23T17:11:39.242Z,70.7
2022-10-23T17:12:56.594Z,70.8
2022-10-23T17:14:14.800Z,71
2022-10-23T17:15:31.506Z,71
2022-10-23T17:16:48.990Z,70.9
2022-10-23T17:18:07.200Z,70.9
2022-10-23T17:19:43.569Z,70.9
2022-10-23T17:20:41.600Z,71
2022-10-23T17:21:59.308Z,71.3
2022-10-23T17:23:16.551Z,71.7
2022-10-23T17:24:34.845Z,72.1
2022-10-23T17:25:52.194Z,72.4
2022-10-23T17:27:09.032Z,72.6
2022-10-23T17:28:26.043Z,72.8
2022-10-23T17:29:44.395Z,72.7
2022-10-23T17:31:01.372Z,72.5
2022-10-23T17:32:18.843Z,72.6
2022-10-23T17:33:36.396Z,72.2
2022-10-23T17:34:53.405Z,71.8
2022-10-23T17:36:10.157Z,71.2
2022-10-23T17:37:27.051Z,70.4
2022-10-23T17:38:45.671Z,69.7
2022-10-23T17:40:03.447Z,69.1
2022-10-23T17:41:20.450Z,68.6
2022-10-23T17:42:37.425Z,68
2022-10-23T17:43:54.267Z,67.5
2022-10-23T17:45:11.071Z,67
2022-10-23T17:46:28.883Z,67
2022-10-23T17:47:46.531Z,66.9
2022-10-23T17:49:04.118Z,66.9
2022-10-23T17:50:21.063Z,67.2
2022-10-23T17:51:38.098Z,67.6
2022-10-23T17:52:55.046Z,68.2
2022-10-23T17:54:12.244Z,68.5
2022-10-23T17:55:29.266Z,69.1
2022-10-23T17:56:46.550Z,69.5
2022-10-23T17:58:04.496Z,69.8
2022-10-23T17:59:21.501Z,70
2022-10-23T18:00:39.369Z,70.5
2022-10-23T18:01:57.391Z,71.4
2022-10-23T18:03:17.714Z,72
2022-10-23T18:04:31.471Z,72.4
2022-10-23T18:05:48.744Z,72.4
2022-10-23T18:07:05.278Z,72.3
2022-10-23T18:08:22.508Z,72.4
2022-10-23T18:09:39.151Z,72.6
2022-10-23T18:10:56.237Z,73.1
2022-10-23T18:12:13.102Z,73.2
2022-10-23T18:13:30.451Z,73.3
2022-10-23T18:14:47.114Z,73.5
2022-10-23T18:16:05.105Z,73.8
2022-10-23T18:17:22.107Z,73.7
2022-10-23T18:18:39.043Z,73.7
2022-10-23T18:19:59.638Z,73.7
2022-10-23T18:21:13.061Z,73.7
2022-10-23T18:22:30.107Z,73.7
2022-10-23T18:23:47.350Z,73.2
2022-10-23T18:25:04.246Z,73
2022-10-23T18:26:21.183Z,73
2022-10-23T18:27:38.071Z,73.1
2022-10-23T18:28:55.085Z,73.5
2022-10-23T18:30:12.143Z,73.9
2022-10-23T18:31:29.115Z,74.4
2022-10-23T18:32:46.324Z,74.9
2022-10-23T18:34:03.118Z,75.4
2022-10-23T18:35:20.082Z,75.5
2022-10-23T18:36:37.114Z,75.3
2022-10-23T18:37:54.162Z,75.3
2022-10-23T18:39:11.292Z,75
2022-10-23T18:40:28.677Z,74.6
2022-10-23T18:41:46.134Z,74.5
2022-10-23T18:43:03.132Z,74.5
2022-10-23T18:44:20.143Z,74.4
2022-10-23T18:45:37.242Z,74.3
2022-10-23T18:46:54.138Z,74.1
2022-10-23T18:48:11.128Z,73.7
2022-10-23T18:49:28.147Z,73.4
2022-10-23T18:50:45.103Z,72.8
2022-10-23T18:52:03.324Z,72.5
2022-10-23T18:53:20.213Z,72
2022-10-23T18:54:37.142Z,71.6
2022-10-23T18:55:54.115Z,71.3
2022-10-23T18:57:11.169Z,71.3
2022-10-23T18:58:28.125Z,71.6
2022-10-23T18:59:45.140Z,71.8
2022-10-23T19:01:02.208Z,72
2022-10-23T19:02:19.241Z,72.3
2022-10-23T19:03:36.154Z,72.7
2022-10-23T19:04:53.120Z,72.8
2022-10-23T19:06:10.153Z,73
2022-10-23T19:07:27.162Z,73.2
2022-10-23T19:08:44.424Z,73.5
2022-10-23T19:10:01.170Z,73.7
2022-10-23T19:11:18.146Z,73.9
2022-10-23T19:12:35.186Z,74.1
2022-10-23T19:13:52.845Z,74
2022-10-23T19:15:10.835Z,73.8
2022-10-23T19:16:29.192Z,73.8
2022-10-23T19:19:09.160Z,74.4
2022-10-23T19:21:43.310Z,74.5
2022-10-23T19:23:01.353Z,74.8
2022-10-23T19:24:18.253Z,74.7
2022-10-23T19:25:36.306Z,75
2022-10-23T19:26:53.373Z,75.7
2022-10-23T19:28:10.183Z,76.5
2022-10-23T19:29:27.252Z,77
2022-10-23T19:30:44.205Z,77.4
2022-10-23T19:32:01.313Z,77.7
2022-10-23T19:33:18.310Z,78
2022-10-23T19:34:35.194Z,78.2
2022-10-23T19:35:52.627Z,78.4
2022-10-23T19:37:09.286Z,78.3
2022-10-23T19:38:26.220Z,78.1
2022-10-23T19:39:43.801Z,77.9
2022-10-23T19:41:01.240Z,77.6
2022-10-23T19:42:18.217Z,77.2
2022-10-23T19:43:35.559Z,77.1
2022-10-23T19:44:52.194Z,76.9
2022-10-23T19:46:11.069Z,76.8
2022-10-23T19:47:26.498Z,76.5
2022-10-23T19:48:43.226Z,76.2
2022-10-23T19:50:00.753Z,75.5
2022-10-23T19:51:18.209Z,75
2022-10-23T19:52:35.557Z,74.5
2022-10-23T19:55:10.240Z,74
2022-10-23T19:56:27.191Z,73.9
2022-10-23T19:57:44.392Z,73.8
2022-10-23T19:59:01.310Z,73.8
2022-10-23T20:00:18.255Z,73.9
2022-10-23T20:01:35.310Z,74
2022-10-23T20:02:54.338Z,74.2
2022-10-23T20:04:09.250Z,74.3
2022-10-23T20:05:26.215Z,74.2
2022-10-23T20:06:43.199Z,74
2022-10-23T20:08:00.498Z,73.7
2022-10-23T20:09:17.232Z,73.5
2022-10-23T20:10:34.284Z,73.4
2022-10-23T20:11:51.243Z,73.3
2022-10-23T20:13:19.153Z,73.4
2022-10-23T20:14:25.237Z,73.7
2022-10-23T20:15:43.722Z,74.1
2022-10-23T20:17:00.260Z,74.2
2022-10-23T20:18:17.534Z,74.2
2022-10-23T20:19:34.400Z,74.1
2022-10-23T20:20:51.510Z,73.7
2022-10-23T20:22:08.323Z,73.4
2022-10-23T20:23:25.381Z,73.3
2022-10-23T20:24:44.590Z,73.3
2022-10-23T20:26:01.287Z,73.3
2022-10-23T20:27:18.269Z,73.4
2022-10-23T20:28:35.270Z,73.6
2022-10-23T20:29:53.330Z,73.8
2022-10-23T20:31:10.283Z,74
2022-10-23T20:32:27.264Z,74.3
2022-10-23T20:33:44.296Z,74.4
2022-10-23T20:35:01.459Z,74.5
2022-10-23T20:36:18.273Z,74.6
2022-10-23T20:37:35.249Z,74.6
2022-10-23T20:38:52.324Z,74.5
2022-10-23T20:40:09.256Z,74.5
2022-10-23T20:41:26.502Z,74.2
2022-10-23T20:42:43.308Z,73.8
2022-10-23T20:44:00.751Z,73.5
2022-10-23T20:45:18.298Z,73.5
2022-10-23T20:46:35.361Z,74
2022-10-23T20:47:52.717Z,74.2
2022-10-23T20:49:09.354Z,74.8
2022-10-23T20:50:26.290Z,75.2
2022-10-23T20:51:43.398Z,76
2022-10-23T20:53:00.299Z,76.7
2022-10-23T20:54:17.298Z,77.2
2022-10-23T20:55:34.336Z,77.8
2022-10-23T20:56:51.304Z,78.1
2022-10-23T20:58:08.377Z,78.6
2022-10-23T20:59:25.379Z,79
2022-10-23T21:00:42.381Z,79.2
2022-10-23T21:01:59.526Z,78.8
2022-10-23T21:03:16.334Z,78.5
2022-10-23T21:04:33.312Z,78
2022-10-23T21:05:50.437Z,77.4
2022-10-23T21:07:10.262Z,76.9
2022-10-23T21:08:24.331Z,76.4
2022-10-23T21:09:41.322Z,75.9
2022-10-23T21:10:58.462Z,75.4
2022-10-23T21:12:15.357Z,74.8
2022-10-23T21:13:32.715Z,74.7
2022-10-23T21:14:49.713Z,74.9
2022-10-23T21:16:06.376Z,75.2
2022-10-23T21:17:23.373Z,75.4
2022-10-23T21:18:45.843Z,75.8
2022-10-23T21:19:57.309Z,76.2
2022-10-23T21:21:14.308Z,76.6
2022-10-23T21:22:31.480Z,76.8
2022-10-23T21:23:48.328Z,77.1
2022-10-23T21:25:05.487Z,77.6
2022-10-23T21:26:22.655Z,77.7
2022-10-23T21:27:39.382Z,77.8
2022-10-23T21:29:13.645Z,77.6
2022-10-23T21:30:13.614Z,77.3
2022-10-23T21:31:30.344Z,77.1
2022-10-23T21:32:47.467Z,76.9
2022-10-23T21:34:04.463Z,76.6
2022-10-23T21:35:21.717Z,76.3
2022-10-23T21:36:48.437Z,75.7
2022-10-23T21:37:55.355Z,75.9
2022-10-23T21:39:12.390Z,76.2
2022-10-23T21:40:29.384Z,76.7
2022-10-23T21:41:47.088Z,77.2
2022-10-23T21:43:06.330Z,78
2022-10-23T21:44:22.408Z,78.8
2022-10-23T21:45:39.410Z,79.3
2022-10-23T21:46:56.396Z,79.7
2022-10-23T21:48:13.360Z,80.1
2022-10-23T21:49:30.390Z,80.3
2022-10-23T21:52:04.408Z,80.5
2022-10-23T21:53:21.370Z,80.4
2022-10-23T21:54:39.681Z,80.5
2022-10-23T21:55:56.420Z,80.4
2022-10-23T21:57:13.425Z,79.9
2022-10-23T21:58:30.419Z,79.8
2022-10-23T21:59:47.417Z,80
2022-10-23T22:01:04.823Z,80.5
2022-10-23T22:02:21.536Z,80.8
2022-10-23T22:03:39.525Z,80.5
2022-10-23T22:04:56.417Z,79.8
2022-10-23T22:06:13.422Z,79.4
2022-10-23T22:07:30.849Z,79.4
2022-10-23T22:08:47.655Z,79.4
2022-10-23T22:10:04.542Z,79.2
2022-10-23T22:11:21.445Z,78.9
2022-10-23T22:12:38.503Z,79
2022-10-23T22:13:55.832Z,79.4
2022-10-23T22:15:12.422Z,79.3
2022-10-23T22:16:29.455Z,79.1
2022-10-23T22:17:46.748Z,79.3
2022-10-23T22:19:03.476Z,79.4
2022-10-23T22:20:21.542Z,79.6
2022-10-23T22:21:38.615Z,79.6
2022-10-23T22:22:55.442Z,79.5
2022-10-23T22:24:12.457Z,79.5
2022-10-23T22:25:29.629Z,79.2
2022-10-23T22:26:46.851Z,79
2022-10-23T22:28:03.496Z,78.7
2022-10-23T22:29:20.758Z,78.9
2022-10-23T22:30:37.533Z,78.7
2022-10-23T22:31:54.428Z,78.7
2022-10-23T22:33:11.481Z,79
2022-10-23T22:34:53.631Z,79.5
2022-10-23T22:35:45.436Z,79.8
2022-10-23T22:37:02.511Z,79.9
2022-10-23T22:38:19.523Z,80.4
2022-10-23T22:39:36.439Z,81.1
2022-10-23T22:40:53.443Z,81.6
2022-10-23T22:42:10.457Z,82
2022-10-23T22:43:27.564Z,82.4
2022-10-23T22:44:44.463Z,82.5
2022-10-23T22:46:01.479Z,82.8
2022-10-23T22:47:18.447Z,83.2
2022-10-23T22:48:35.471Z,83.5
2022-10-23T22:49:52.488Z,83.7
2022-10-23T22:51:09.457Z,83.7
2022-10-23T22:52:26.530Z,83.6
2022-10-23T22:53:43.477Z,83.5
2022-10-23T22:55:00.481Z,83
2022-10-23T22:56:17.466Z,82.5
2022-10-23T22:57:34.496Z,82.2
2022-10-23T22:58:51.484Z,81.8
2022-10-23T23:00:08.553Z,81.3
2022-10-23T23:01:25.655Z,81.1
2022-10-23T23:02:42.468Z,80.5
2022-10-23T23:04:04.345Z,80.3
2022-10-23T23:05:16.494Z,80.2
2022-10-23T23:06:33.510Z,80.3
2022-10-23T23:07:50.542Z,80.1
2022-10-23T23:09:07.465Z,79.9
2022-10-23T23:10:24.495Z,79.9
2022-10-23T23:11:45.884Z,79.6
2022-10-23T23:12:58.482Z,79.8
2022-10-23T23:14:16.655Z,79.8
2022-10-23T23:15:32.531Z,79.6
2022-10-23T23:16:49.533Z,79.6
2022-10-23T23:18:06.530Z,79.8
2022-10-23T23:19:23.496Z,80.3
2022-10-23T23:20:40.516Z,80.2
2022-10-23T23:21:57.553Z,80.2
2022-10-23T23:23:14.506Z,80.1
2022-10-23T23:24:31.537Z,79.7
2022-10-23T23:25:48.517Z,79.5
2022-10-23T23:27:05.541Z,79.4
2022-10-23T23:28:22.538Z,79.5
2022-10-23T23:29:39.516Z,79.3
2022-10-23T23:30:56.571Z,79.4
2022-10-23T23:32:13.579Z,79.7
2022-10-23T23:33:30.550Z,80.1
2022-10-23T23:34:47.519Z,80.7
2022-10-23T23:36:04.530Z,81
2022-10-23T23:37:21.604Z,81.1
2022-10-23T23:38:38.526Z,80.9
2022-10-23T23:39:55.524Z,80.9
2022-10-23T23:41:12.524Z,80.9
2022-10-23T23:42:29.574Z,81.1
2022-10-23T23:43:46.618Z,81
2022-10-23T23:45:14.091Z,80.7
2022-10-23T23:46:20.563Z,80.3
2022-10-23T23:47:37.568Z,80.1
2022-10-23T23:48:54.527Z,80.5
2022-10-23T23:50:11.527Z,81
2022-10-23T23:51:28.547Z,81.5
2022-10-23T23:52:45.587Z,81.8
2022-10-23T23:54:02.533Z,81.9
2022-10-23T23:55:19.957Z,82
2022-10-23T23:56:36.557Z,82.3
2022-10-23T23:57:53.548Z,82.3
2022-10-23T23:59:10.565Z,82.4
